sensor_id;sensor_type;location;lat;lon;timestamp;P1;durP1;ratioP1;P2;durP2;ratioP2
71955;SDS011;59829;50.562;6.258;2023-08-08T00:01:25;0.82;;;0.60;;
71955;SDS011;59829;50.562;6.258;2023-08-08T00:11:26;1.73;;;1.23;;
71955;SDS011;59829;50.562;6.258;2023-08-08T00:21:26;2.00;;;1.10;;
71955;SDS011;59829;50.562;6.258;2023-08-08T00:31:26;2.17;;;1.00;;
71955;SDS011;59829;50.562;6.258;2023-08-08T00:41:27;1.98;;;1.05;;
71955;SDS011;59829;50.562;6.258;2023-08-08T00:51:27;1.75;;;1.10;;
71955;SDS011;59829;50.562;6.258;2023-08-08T01:01:28;1.73;;;0.90;;
71955;SDS011;59829;50.562;6.258;2023-08-08T01:11:28;1.80;;;0.82;;
71955;SDS011;59829;50.562;6.258;2023-08-08T01:21:31;1.17;;;0.85;;
71955;SDS011;59829;50.562;6.258;2023-08-08T01:31:35;2.17;;;1.20;;
71955;SDS011;59829;50.562;6.258;2023-08-08T01:41:35;2.00;;;1.08;;
71955;SDS011;59829;50.562;6.258;2023-08-08T01:51:38;1.77;;;0.90;;
71955;SDS011;59829;50.562;6.258;2023-08-08T02:01:38;2.17;;;0.82;;
71955;SDS011;59829;50.562;6.258;2023-08-08T02:11:39;3.70;;;1.05;;
71955;SDS011;59829;50.562;6.258;2023-08-08T02:21:39;1.45;;;0.70;;
71955;SDS011;59829;50.562;6.258;2023-08-08T02:31:39;2.45;;;1.10;;
71955;SDS011;59829;50.562;6.258;2023-08-08T02:41:39;3.40;;;1.00;;
71955;SDS011;59829;50.562;6.258;2023-08-08T02:51:40;1.30;;;0.93;;
71955;SDS011;59829;50.562;6.258;2023-08-08T03:01:40;1.60;;;0.90;;
71955;SDS011;59829;50.562;6.258;2023-08-08T03:11:40;1.52;;;0.93;;
71955;SDS011;59829;50.562;6.258;2023-08-08T03:21:44;1.60;;;0.95;;
71955;SDS011;59829;50.562;6.258;2023-08-08T03:31:44;1.52;;;1.08;;
71955;SDS011;59829;50.562;6.258;2023-08-08T03:41:44;2.75;;;1.13;;
71955;SDS011;59829;50.562;6.258;2023-08-08T03:51:44;1.27;;;0.90;;
71955;SDS011;59829;50.562;6.258;2023-08-08T04:01:45;3.30;;;1.20;;
71955;SDS011;59829;50.562;6.258;2023-08-08T04:11:45;3.13;;;1.40;;
71955;SDS011;59829;50.562;6.258;2023-08-08T04:21:45;4.15;;;1.67;;
71955;SDS011;59829;50.562;6.258;2023-08-08T04:31:46;3.38;;;1.40;;
71955;SDS011;59829;50.562;6.258;2023-08-08T04:41:46;4.90;;;1.90;;
71955;SDS011;59829;50.562;6.258;2023-08-08T04:51:46;3.38;;;1.85;;
71955;SDS011;59829;50.562;6.258;2023-08-08T05:11:49;4.00;;;1.85;;
71955;SDS011;59829;50.562;6.258;2023-08-08T05:21:50;3.67;;;1.83;;
71955;SDS011;59829;50.562;6.258;2023-08-08T05:31:50;5.10;;;1.58;;
71955;SDS011;59829;50.562;6.258;2023-08-08T05:41:50;3.00;;;1.60;;
71955;SDS011;59829;50.562;6.258;2023-08-08T05:51:51;3.47;;;1.75;;
71955;SDS011;59829;50.562;6.258;2023-08-08T06:01:52;4.07;;;1.70;;
71955;SDS011;59829;50.562;6.258;2023-08-08T06:11:52;3.17;;;1.45;;
71955;SDS011;59829;50.562;6.258;2023-08-08T06:21:52;3.10;;;1.33;;
71955;SDS011;59829;50.562;6.258;2023-08-08T06:31:52;3.60;;;1.60;;
71955;SDS011;59829;50.562;6.258;2023-08-08T06:41:53;3.92;;;2.28;;
71955;SDS011;59829;50.562;6.258;2023-08-08T06:51:53;3.58;;;2.20;;
71955;SDS011;59829;50.562;6.258;2023-08-08T07:01:53;3.55;;;1.90;;
71955;SDS011;59829;50.562;6.258;2023-08-08T07:11:54;3.33;;;2.00;;
71955;SDS011;59829;50.562;6.258;2023-08-08T07:21:54;2.72;;;1.60;;
71955;SDS011;59829;50.562;6.258;2023-08-08T07:31:55;3.58;;;1.35;;
71955;SDS011;59829;50.562;6.258;2023-08-08T07:41:55;4.53;;;1.35;;
71955;SDS011;59829;50.562;6.258;2023-08-08T07:51:55;4.13;;;1.52;;
71955;SDS011;59829;50.562;6.258;2023-08-08T08:01:56;2.47;;;1.02;;
71955;SDS011;59829;50.562;6.258;2023-08-08T08:11:56;2.25;;;1.00;;
71955;SDS011;59829;50.562;6.258;2023-08-08T08:21:56;2.47;;;1.00;;
71955;SDS011;59829;50.562;6.258;2023-08-08T08:32:00;2.80;;;1.40;;
71955;SDS011;59829;50.562;6.258;2023-08-08T08:42:00;1.65;;;1.00;;
71955;SDS011;59829;50.562;6.258;2023-08-08T08:52:05;2.55;;;1.08;;
71955;SDS011;59829;50.562;6.258;2023-08-08T09:02:06;1.77;;;0.95;;
71955;SDS011;59829;50.562;6.258;2023-08-08T09:12:07;2.53;;;0.90;;
71955;SDS011;59829;50.562;6.258;2023-08-08T09:22:08;2.67;;;0.90;;
71955;SDS011;59829;50.562;6.258;2023-08-08T09:32:08;1.73;;;1.02;;
71955;SDS011;59829;50.562;6.258;2023-08-08T09:42:09;2.30;;;0.93;;
71955;SDS011;59829;50.562;6.258;2023-08-08T09:52:11;2.53;;;1.20;;
71955;SDS011;59829;50.562;6.258;2023-08-08T10:02:13;4.03;;;1.08;;
71955;SDS011;59829;50.562;6.258;2023-08-08T10:12:15;2.00;;;0.70;;
71955;SDS011;59829;50.562;6.258;2023-08-08T10:22:19;5.63;;;1.10;;
71955;SDS011;59829;50.562;6.258;2023-08-08T10:32:24;3.30;;;0.93;;
71955;SDS011;59829;50.562;6.258;2023-08-08T10:42:26;3.70;;;1.10;;
71955;SDS011;59829;50.562;6.258;2023-08-08T10:52:27;2.17;;;1.10;;
71955;SDS011;59829;50.562;6.258;2023-08-08T11:02:28;2.40;;;0.93;;
71955;SDS011;59829;50.562;6.258;2023-08-08T11:12:31;1.88;;;0.80;;
71955;SDS011;59829;50.562;6.258;2023-08-08T11:22:32;3.65;;;1.20;;
71955;SDS011;59829;50.562;6.258;2023-08-08T11:32:32;2.33;;;0.95;;
71955;SDS011;59829;50.562;6.258;2023-08-08T11:42:33;2.70;;;1.02;;
71955;SDS011;59829;50.562;6.258;2023-08-08T11:52:41;2.87;;;0.90;;
71955;SDS011;59829;50.562;6.258;2023-08-08T12:02:42;3.15;;;1.13;;
71955;SDS011;59829;50.562;6.258;2023-08-08T12:12:43;2.63;;;0.88;;
71955;SDS011;59829;50.562;6.258;2023-08-08T12:22:44;5.43;;;1.30;;
71955;SDS011;59829;50.562;6.258;2023-08-08T12:32:45;3.40;;;1.05;;
71955;SDS011;59829;50.562;6.258;2023-08-08T12:42:45;1.85;;;0.63;;
71955;SDS011;59829;50.562;6.258;2023-08-08T12:52:45;1.98;;;0.70;;
71955;SDS011;59829;50.562;6.258;2023-08-08T13:02:46;1.10;;;0.60;;
71955;SDS011;59829;50.562;6.258;2023-08-08T13:12:47;2.25;;;0.60;;
71955;SDS011;59829;50.562;6.258;2023-08-08T13:22:48;2.05;;;0.60;;
71955;SDS011;59829;50.562;6.258;2023-08-08T13:32:48;1.33;;;0.70;;
71955;SDS011;59829;50.562;6.258;2023-08-08T13:42:49;2.90;;;0.80;;
71955;SDS011;59829;50.562;6.258;2023-08-08T13:52:50;2.15;;;0.98;;
71955;SDS011;59829;50.562;6.258;2023-08-08T14:02:52;2.33;;;0.80;;
71955;SDS011;59829;50.562;6.258;2023-08-08T14:12:52;1.58;;;0.70;;
71955;SDS011;59829;50.562;6.258;2023-08-08T14:22:53;1.67;;;0.73;;
71955;SDS011;59829;50.562;6.258;2023-08-08T14:32:53;2.30;;;0.70;;
71955;SDS011;59829;50.562;6.258;2023-08-08T14:42:54;1.75;;;0.90;;
71955;SDS011;59829;50.562;6.258;2023-08-08T14:52:54;1.60;;;0.88;;
71955;SDS011;59829;50.562;6.258;2023-08-08T15:02:54;3.45;;;1.05;;
71955;SDS011;59829;50.562;6.258;2023-08-08T15:12:55;2.75;;;1.20;;
71955;SDS011;59829;50.562;6.258;2023-08-08T15:22:55;2.47;;;0.70;;
71955;SDS011;59829;50.562;6.258;2023-08-08T15:32:56;2.53;;;1.00;;
71955;SDS011;59829;50.562;6.258;2023-08-08T15:42:56;3.10;;;0.95;;
71955;SDS011;59829;50.562;6.258;2023-08-08T15:52:56;3.03;;;1.10;;
71955;SDS011;59829;50.562;6.258;2023-08-08T16:02:58;7.13;;;0.90;;
71955;SDS011;59829;50.562;6.258;2023-08-08T16:12:59;2.53;;;1.02;;
71955;SDS011;59829;50.562;6.258;2023-08-08T16:22:59;2.25;;;0.90;;
71955;SDS011;59829;50.562;6.258;2023-08-08T16:33:00;1.98;;;0.90;;
71955;SDS011;59829;50.562;6.258;2023-08-08T16:43:00;1.75;;;0.70;;
71955;SDS011;59829;50.562;6.258;2023-08-08T16:53:00;3.10;;;0.80;;
71955;SDS011;59829;50.562;6.258;2023-08-08T17:03:01;3.35;;;1.17;;
71955;SDS011;59829;50.562;6.258;2023-08-08T17:13:02;1.27;;;0.70;;
71955;SDS011;59829;50.562;6.258;2023-08-08T17:23:03;1.20;;;0.70;;
71955;SDS011;59829;50.562;6.258;2023-08-08T17:33:03;1.08;;;0.63;;
71955;SDS011;59829;50.562;6.258;2023-08-08T17:43:04;2.63;;;1.05;;
71955;SDS011;59829;50.562;6.258;2023-08-08T17:53:04;1.80;;;0.88;;
71955;SDS011;59829;50.562;6.258;2023-08-08T18:03:04;2.47;;;0.85;;
71955;SDS011;59829;50.562;6.258;2023-08-08T18:13:05;2.97;;;1.40;;
71955;SDS011;59829;50.562;6.258;2023-08-08T18:23:05;2.83;;;1.10;;
71955;SDS011;59829;50.562;6.258;2023-08-08T18:33:06;1.88;;;1.13;;
71955;SDS011;59829;50.562;6.258;2023-08-08T18:43:06;1.30;;;0.88;;
71955;SDS011;59829;50.562;6.258;2023-08-08T18:53:06;2.70;;;1.13;;
71955;SDS011;59829;50.562;6.258;2023-08-08T19:03:07;2.00;;;0.80;;
71955;SDS011;59829;50.562;6.258;2023-08-08T19:13:07;2.15;;;1.15;;
71955;SDS011;59829;50.562;6.258;2023-08-08T19:23:08;2.08;;;1.10;;
71955;SDS011;59829;50.562;6.258;2023-08-08T19:33:08;2.70;;;1.65;;
71955;SDS011;59829;50.562;6.258;2023-08-08T19:43:08;1.95;;;1.23;;
71955;SDS011;59829;50.562;6.258;2023-08-08T19:53:08;2.17;;;1.08;;
71955;SDS011;59829;50.562;6.258;2023-08-08T20:03:09;1.60;;;1.20;;
71955;SDS011;59829;50.562;6.258;2023-08-08T20:13:09;2.45;;;1.30;;
71955;SDS011;59829;50.562;6.258;2023-08-08T20:23:10;1.70;;;1.20;;
71955;SDS011;59829;50.562;6.258;2023-08-08T20:33:10;3.28;;;1.30;;
71955;SDS011;59829;50.562;6.258;2023-08-08T20:43:11;1.30;;;0.93;;
71955;SDS011;59829;50.562;6.258;2023-08-08T20:53:11;1.23;;;0.90;;
71955;SDS011;59829;50.562;6.258;2023-08-08T21:03:12;1.80;;;1.00;;
71955;SDS011;59829;50.562;6.258;2023-08-08T21:13:13;2.30;;;1.00;;
71955;SDS011;59829;50.562;6.258;2023-08-08T21:23:13;0.70;;;0.60;;
71955;SDS011;59829;50.562;6.258;2023-08-08T21:33:13;2.22;;;1.00;;
71955;SDS011;59829;50.562;6.258;2023-08-08T21:43:14;0.68;;;0.50;;
71955;SDS011;59829;50.562;6.258;2023-08-08T21:53:14;0.65;;;0.40;;
71955;SDS011;59829;50.562;6.258;2023-08-08T22:03:14;0.90;;;0.70;;
71955;SDS011;59829;50.562;6.258;2023-08-08T22:13:15;0.88;;;0.68;;
71955;SDS011;59829;50.562;6.258;2023-08-08T22:23:15;1.13;;;0.80;;
71955;SDS011;59829;50.562;6.258;2023-08-08T22:33:15;1.42;;;0.90;;
71955;SDS011;59829;50.562;6.258;2023-08-08T22:43:16;2.22;;;1.10;;
71955;SDS011;59829;50.562;6.258;2023-08-08T22:53:16;2.00;;;1.10;;
71955;SDS011;59829;50.562;6.258;2023-08-08T23:03:17;2.00;;;1.30;;
71955;SDS011;59829;50.562;6.258;2023-08-08T23:13:17;2.63;;;1.40;;
71955;SDS011;59829;50.562;6.258;2023-08-08T23:23:17;2.55;;;1.40;;
71955;SDS011;59829;50.562;6.258;2023-08-08T23:33:17;3.03;;;1.77;;
71955;SDS011;59829;50.562;6.258;2023-08-08T23:43:18;1.40;;;0.90;;
71955;SDS011;59829;50.562;6.258;2023-08-08T23:53:18;0.82;;;0.63;;
